createdAt,value
2023-10-20T00:00:39.029Z,12.79
2023-10-20T00:03:27.199Z,12.77
2023-10-20T00:05:55.479Z,12.78
2023-10-20T00:08:24.688Z,12.81
2023-10-20T00:10:53.691Z,12.83
2023-10-20T00:13:22.525Z,12.84
2023-10-20T00:15:51.510Z,12.83
2023-10-20T00:18:19.896Z,12.83
2023-10-20T00:20:48.268Z,12.82
2023-10-20T00:23:16.339Z,12.82
2023-10-20T00:25:44.859Z,12.83
2023-10-20T00:28:12.948Z,12.84
2023-10-20T00:30:41.545Z,12.86
2023-10-20T00:33:10.360Z,12.87
2023-10-20T00:35:39.042Z,12.84
2023-10-20T00:38:07.725Z,12.77
2023-10-20T00:40:36.067Z,12.77
2023-10-20T00:43:04.423Z,12.74
2023-10-20T00:45:32.651Z,12.71
2023-10-20T00:48:01.697Z,12.68
2023-10-20T00:50:31.789Z,12.71
2023-10-20T00:53:01.618Z,12.72
2023-10-20T00:55:31.786Z,12.73
2023-10-20T00:58:00.942Z,12.73
2023-10-20T01:00:30.231Z,12.73
2023-10-20T01:02:58.828Z,12.68
2023-10-20T01:05:28.848Z,12.66
2023-10-20T01:07:57.683Z,12.66
2023-10-20T01:10:25.845Z,12.65
2023-10-20T01:12:54.164Z,12.58
2023-10-20T01:15:22.878Z,12.53
2023-10-20T01:17:51.196Z,12.55
2023-10-20T01:20:19.497Z,12.58
2023-10-20T01:22:47.601Z,12.59
2023-10-20T01:25:16.592Z,12.61
2023-10-20T01:27:45.043Z,12.61
2023-10-20T01:30:13.648Z,12.60
2023-10-20T01:32:43.282Z,12.60
2023-10-20T01:35:12.096Z,12.61
2023-10-20T01:37:44.248Z,12.61
2023-10-20T01:40:13.739Z,12.61
2023-10-20T01:42:42.117Z,12.63
2023-10-20T01:45:11.216Z,12.64
2023-10-20T01:47:40.119Z,12.65
2023-10-20T01:50:09.235Z,12.67
2023-10-20T01:52:38.639Z,12.70
2023-10-20T01:55:07.800Z,12.70
2023-10-20T01:57:36.394Z,12.69
2023-10-20T02:00:09.394Z,12.68
2023-10-20T02:02:44.179Z,12.65
2023-10-20T02:05:13.779Z,12.61
2023-10-20T02:07:43.927Z,12.58
2023-10-20T02:10:12.210Z,12.55
2023-10-20T02:12:40.615Z,12.50
2023-10-20T02:15:09.536Z,12.45
2023-10-20T02:17:38.019Z,12.43
2023-10-20T02:20:08.202Z,12.40
2023-10-20T02:22:36.649Z,12.35
2023-10-20T02:25:05.809Z,12.33
2023-10-20T02:27:33.932Z,12.30
2023-10-20T02:30:04.398Z,12.28
2023-10-20T02:32:32.791Z,12.27
2023-10-20T02:35:02.419Z,12.23
2023-10-20T02:37:30.672Z,12.21
2023-10-20T02:40:00.166Z,12.22
2023-10-20T02:42:30.028Z,12.23
2023-10-20T02:44:58.461Z,12.25
2023-10-20T02:47:27.305Z,12.24
2023-10-20T02:49:57.057Z,12.25
2023-10-20T02:52:26.361Z,12.27
2023-10-20T02:54:56.126Z,12.28
2023-10-20T02:57:24.453Z,12.30
2023-10-20T02:59:52.872Z,12.33
2023-10-20T03:02:24.342Z,12.38
2023-10-20T03:04:55.659Z,12.43
2023-10-20T03:07:28.787Z,12.46
2023-10-20T03:09:58.158Z,12.52
2023-10-20T03:12:26.200Z,12.54
2023-10-20T03:14:54.300Z,12.56
2023-10-20T03:17:22.489Z,12.58
2023-10-20T03:19:50.863Z,12.59
2023-10-20T03:22:18.948Z,12.60
2023-10-20T03:24:47.012Z,12.60
2023-10-20T03:27:15.329Z,12.62
2023-10-20T03:29:44.263Z,12.63
2023-10-20T03:32:12.959Z,12.65
2023-10-20T03:34:41.709Z,12.64
2023-10-20T03:37:09.831Z,12.63
2023-10-20T03:39:38.588Z,12.63
2023-10-20T03:42:08.498Z,12.62
2023-10-20T03:44:37.195Z,12.64
2023-10-20T03:47:07.057Z,12.66
2023-10-20T03:49:36.669Z,12.68
2023-10-20T03:52:08.116Z,12.70
2023-10-20T03:54:36.252Z,12.72
2023-10-20T03:57:05.150Z,12.74
2023-10-20T03:59:33.891Z,12.77
2023-10-20T04:02:02.998Z,12.78
2023-10-20T04:04:31.749Z,12.80
2023-10-20T04:07:00.089Z,12.80
2023-10-20T04:09:30.498Z,12.79
2023-10-20T04:11:58.834Z,12.79
2023-10-20T04:14:27.257Z,12.82
2023-10-20T04:16:55.986Z,12.84
2023-10-20T04:19:24.243Z,12.83
2023-10-20T04:21:52.614Z,12.83
2023-10-20T04:24:23.024Z,12.83
2023-10-20T04:26:51.598Z,12.81
2023-10-20T04:29:20.234Z,12.77
2023-10-20T04:32:07.041Z,12.70
2023-10-20T04:34:54.354Z,12.65
2023-10-20T04:37:41.062Z,12.61
2023-10-20T04:40:28.351Z,12.59
2023-10-20T04:43:15.057Z,12.56
2023-10-20T04:46:18.987Z,12.55
2023-10-20T04:48:59.233Z,12.52
2023-10-20T04:51:50.708Z,12.49
2023-10-20T04:54:24.502Z,12.47
2023-10-20T04:57:11.504Z,12.46
2023-10-20T04:59:40.752Z,12.45
2023-10-20T05:02:25.725Z,12.44
2023-10-20T05:04:54.175Z,12.44
2023-10-20T05:07:27.785Z,12.45
2023-10-20T05:09:56.092Z,12.46
2023-10-20T05:12:24.542Z,12.48
2023-10-20T05:14:52.690Z,12.50
2023-10-20T05:17:22.380Z,12.51
2023-10-20T05:19:50.822Z,12.53
2023-10-20T05:22:18.831Z,12.57
2023-10-20T05:24:47.118Z,12.61
2023-10-20T05:27:15.432Z,12.65
2023-10-20T05:29:44.269Z,12.72
2023-10-20T05:32:12.657Z,12.78
2023-10-20T05:34:41.062Z,12.85
2023-10-20T05:37:10.002Z,12.93
2023-10-20T05:39:38.948Z,13.02
2023-10-20T05:42:07.133Z,13.09
2023-10-20T05:44:35.829Z,13.17
2023-10-20T05:47:05.418Z,13.24
2023-10-20T05:49:34.028Z,13.33
2023-10-20T05:52:02.338Z,13.38
2023-10-20T05:54:31.736Z,13.45
2023-10-20T05:57:00.467Z,13.53
2023-10-20T05:59:28.698Z,13.60
2023-10-20T06:01:59.689Z,13.69
2023-10-20T06:04:28.779Z,13.78
2023-10-20T06:06:57.696Z,13.82
2023-10-20T06:09:26.659Z,13.86
2023-10-20T06:11:55.388Z,13.92
2023-10-20T06:14:27.567Z,13.96
2023-10-20T06:16:56.121Z,14.00
2023-10-20T06:19:25.104Z,14.03
2023-10-20T06:21:54.339Z,14.07
2023-10-20T06:24:22.629Z,14.11
2023-10-20T06:26:51.203Z,14.14
2023-10-20T06:29:29.125Z,14.18
2023-10-20T06:32:16.097Z,14.21
2023-10-20T06:34:44.368Z,14.23
2023-10-20T06:37:26.440Z,14.24
2023-10-20T06:39:54.950Z,14.24
2023-10-20T06:42:23.727Z,14.25
2023-10-20T06:44:52.932Z,14.27
2023-10-20T06:47:22.732Z,14.31
2023-10-20T06:49:51.336Z,14.39
2023-10-20T06:52:20.245Z,14.48
2023-10-20T06:55:15.320Z,14.58
2023-10-20T06:57:39.044Z,14.73
2023-10-20T07:00:18.020Z,14.86
2023-10-20T07:02:46.534Z,15.03
2023-10-20T07:05:15.769Z,15.18
2023-10-20T07:07:44.418Z,15.28
2023-10-20T07:10:13.290Z,15.40
2023-10-20T07:12:41.463Z,15.51
2023-10-20T07:15:10.261Z,15.62
2023-10-20T07:17:38.456Z,15.73
2023-10-20T07:20:08.377Z,15.83
2023-10-20T07:22:36.624Z,15.89
2023-10-20T07:25:05.628Z,15.92
2023-10-20T07:27:33.730Z,15.92
2023-10-20T07:30:02.078Z,15.95
2023-10-20T07:32:30.765Z,16.00
2023-10-20T07:34:59.100Z,16.06
2023-10-20T07:37:27.193Z,16.14
2023-10-20T07:39:55.712Z,16.19
2023-10-20T07:42:24.148Z,16.27
2023-10-20T07:44:52.602Z,16.34
2023-10-20T07:47:21.049Z,16.44
2023-10-20T07:49:49.800Z,16.58
2023-10-20T07:52:18.761Z,16.77
2023-10-20T07:54:46.845Z,16.95
2023-10-20T07:57:16.863Z,17.20
2023-10-20T07:59:46.608Z,17.48
2023-10-20T08:02:15.026Z,17.74
2023-10-20T08:04:43.522Z,17.92
2023-10-20T08:07:13.193Z,17.93
2023-10-20T08:09:41.738Z,17.91
2023-10-20T08:12:10.193Z,17.91
2023-10-20T08:14:39.079Z,17.95
2023-10-20T08:17:09.079Z,18.03
2023-10-20T08:19:37.473Z,18.14
2023-10-20T08:22:05.610Z,18.29
2023-10-20T08:24:34.230Z,18.43
2023-10-20T08:27:03.386Z,18.54
2023-10-20T08:29:33.436Z,18.68
2023-10-20T08:32:01.976Z,18.91
2023-10-20T08:34:33.607Z,19.29
2023-10-20T08:37:03.529Z,19.75
2023-10-20T08:39:33.043Z,20.04
2023-10-20T08:42:01.759Z,20.18
2023-10-20T08:44:31.614Z,20.28
2023-10-20T08:47:00.746Z,20.37
2023-10-20T08:49:29.687Z,20.64
2023-10-20T08:51:59.566Z,20.82
2023-10-20T08:54:27.889Z,20.88
2023-10-20T08:56:56.070Z,20.86
2023-10-20T08:59:25.139Z,20.87
2023-10-20T09:01:57.446Z,20.88
2023-10-20T09:04:27.486Z,20.97
2023-10-20T09:06:56.974Z,21.06
2023-10-20T09:09:25.088Z,21.13
2023-10-20T09:11:54.900Z,21.20
2023-10-20T09:14:26.251Z,21.30
2023-10-20T09:16:58.521Z,21.40
2023-10-20T09:19:26.640Z,21.43
2023-10-20T09:21:59.045Z,21.41
2023-10-20T09:24:36.058Z,21.41
2023-10-20T09:27:06.082Z,21.45
2023-10-20T09:29:35.831Z,21.48
2023-10-20T09:32:06.346Z,21.57
2023-10-20T09:34:36.411Z,22.02
2023-10-20T09:37:06.013Z,22.18
2023-10-20T09:39:40.824Z,22.20
2023-10-20T09:42:14.113Z,22.14
2023-10-20T09:44:48.943Z,22.03
2023-10-20T09:47:26.203Z,21.96
2023-10-20T09:49:56.044Z,21.93
2023-10-20T09:52:24.257Z,21.92
2023-10-20T09:54:54.269Z,21.93
2023-10-20T09:57:24.072Z,21.89
2023-10-20T09:59:55.795Z,21.82
2023-10-20T10:02:29.216Z,21.73
2023-10-20T10:04:58.982Z,21.61
2023-10-20T10:07:34.124Z,21.49
2023-10-20T10:10:06.020Z,21.42
2023-10-20T10:12:35.724Z,21.35
2023-10-20T10:15:13.699Z,21.25
2023-10-20T10:17:50.432Z,21.20
2023-10-20T10:20:26.399Z,21.13
2023-10-20T10:23:01.866Z,21.08
2023-10-20T10:26:13.231Z,21.04
2023-10-20T10:28:49.754Z,20.99
2023-10-20T10:31:18.785Z,21.01
2023-10-20T10:33:48.185Z,21.04
2023-10-20T10:36:16.387Z,21.12
2023-10-20T10:38:45.714Z,21.24
2023-10-20T10:41:14.378Z,21.43
2023-10-20T10:43:43.525Z,21.65
2023-10-20T10:46:13.076Z,21.94
2023-10-20T10:48:41.428Z,22.20
2023-10-20T10:51:10.851Z,22.35
2023-10-20T10:53:41.390Z,22.46
2023-10-20T10:56:10.519Z,22.52
2023-10-20T10:58:39.717Z,22.56
2023-10-20T11:01:08.199Z,22.58
2023-10-20T11:03:36.922Z,22.63
2023-10-20T11:06:05.729Z,22.73
2023-10-20T11:08:34.642Z,23.12
2023-10-20T11:11:04.018Z,23.54
2023-10-20T11:13:33.989Z,23.77
2023-10-20T11:16:02.259Z,23.87
2023-10-20T11:18:30.657Z,24.19
2023-10-20T11:20:58.970Z,24.85
2023-10-20T11:23:31.267Z,25.41
2023-10-20T11:25:59.635Z,25.95
2023-10-20T11:28:29.849Z,26.35
2023-10-20T11:30:58.498Z,26.63
2023-10-20T11:33:27.132Z,26.80
2023-10-20T11:35:58.073Z,27.02
2023-10-20T11:38:28.643Z,27.39
2023-10-20T11:40:57.228Z,27.66
2023-10-20T11:43:25.583Z,27.85
2023-10-20T11:45:54.925Z,28.06
2023-10-20T11:48:24.661Z,28.20
2023-10-20T11:50:53.053Z,28.26
2023-10-20T11:53:21.368Z,28.12
2023-10-20T11:55:51.099Z,27.96
2023-10-20T11:58:19.576Z,27.76
2023-10-20T12:00:48.029Z,27.52
2023-10-20T12:03:16.632Z,27.28
2023-10-20T12:05:47.863Z,27.10
2023-10-20T12:08:17.078Z,26.90
2023-10-20T12:10:45.289Z,26.73
2023-10-20T12:13:13.895Z,26.57
2023-10-20T12:15:42.581Z,26.43
2023-10-20T12:18:10.988Z,26.27
2023-10-20T12:20:39.411Z,26.14
2023-10-20T12:23:07.783Z,26.02
2023-10-20T12:25:36.334Z,25.81
2023-10-20T12:28:06.144Z,25.67
2023-10-20T12:30:34.412Z,25.59
2023-10-20T12:33:03.233Z,25.52
2023-10-20T12:35:31.415Z,25.39
2023-10-20T12:37:59.575Z,25.27
2023-10-20T12:40:27.820Z,25.18
2023-10-20T12:42:55.964Z,25.09
2023-10-20T12:45:24.940Z,25.00
2023-10-20T12:47:56.952Z,24.94
2023-10-20T12:50:25.342Z,24.88
2023-10-20T12:52:53.888Z,24.79
2023-10-20T12:55:22.388Z,24.69
2023-10-20T12:57:51.056Z,24.57
2023-10-20T13:00:21.296Z,24.45
2023-10-20T13:02:53.976Z,24.32
2023-10-20T13:05:23.586Z,24.13
2023-10-20T13:07:52.129Z,23.91
2023-10-20T13:10:22.141Z,23.76
2023-10-20T13:12:50.622Z,23.63
2023-10-20T13:15:20.645Z,23.50
2023-10-20T13:17:48.844Z,23.37
2023-10-20T13:20:17.307Z,23.23
2023-10-20T13:22:45.347Z,23.13
2023-10-20T13:25:15.424Z,23.01
2023-10-20T13:27:44.346Z,22.90
2023-10-20T13:30:13.894Z,22.78
2023-10-20T13:32:42.463Z,22.63
2023-10-20T13:35:11.796Z,22.51
2023-10-20T13:37:41.011Z,22.42
2023-10-20T13:40:10.476Z,22.25
2023-10-20T13:42:39.783Z,22.09
2023-10-20T13:45:09.205Z,21.93
2023-10-20T13:47:37.374Z,21.79
2023-10-20T13:50:06.699Z,21.69
2023-10-20T13:52:34.964Z,21.60
2023-10-20T13:55:03.363Z,21.52
2023-10-20T13:57:31.912Z,21.47
2023-10-20T14:00:00.358Z,21.40
2023-10-20T14:02:29.598Z,21.32
2023-10-20T14:04:58.058Z,21.22
2023-10-20T14:07:26.645Z,21.17
2023-10-20T14:09:54.677Z,21.10
2023-10-20T14:12:23.368Z,21.03
2023-10-20T14:14:52.454Z,20.93
2023-10-20T14:17:20.582Z,20.86
2023-10-20T14:19:49.018Z,20.79
2023-10-20T14:22:17.437Z,20.74
2023-10-20T14:24:45.826Z,20.68
2023-10-20T14:27:14.452Z,20.62
2023-10-20T14:29:43.007Z,20.55
2023-10-20T14:32:11.283Z,20.48
2023-10-20T14:34:39.550Z,20.42
2023-10-20T14:37:09.238Z,20.32
2023-10-20T14:39:40.664Z,20.24
2023-10-20T14:42:09.279Z,20.18
2023-10-20T14:44:37.689Z,20.12
2023-10-20T14:47:05.848Z,20.05
2023-10-20T14:49:34.350Z,19.96
2023-10-20T14:52:03.482Z,19.87
2023-10-20T14:54:34.670Z,19.78
2023-10-20T14:57:03.498Z,19.72
2023-10-20T14:59:32.277Z,19.65
2023-10-20T15:02:00.355Z,19.61
2023-10-20T15:04:30.777Z,19.56
2023-10-20T15:06:59.679Z,19.49
2023-10-20T15:09:28.359Z,19.38
2023-10-20T15:11:56.639Z,19.31
2023-10-20T15:14:25.039Z,19.23
2023-10-20T15:16:53.223Z,19.17
2023-10-20T15:19:21.615Z,19.12
2023-10-20T15:21:50.048Z,19.10
2023-10-20T15:24:18.134Z,19.06
2023-10-20T15:26:47.136Z,19.03
2023-10-20T15:29:16.769Z,19.00
2023-10-20T15:31:45.238Z,18.94
2023-10-20T15:34:15.065Z,18.91
2023-10-20T15:36:49.223Z,18.88
2023-10-20T15:39:26.513Z,18.84
2023-10-20T15:41:58.727Z,18.82
2023-10-20T15:44:27.154Z,18.79
2023-10-20T15:46:55.557Z,18.77
2023-10-20T15:49:24.332Z,18.74
2023-10-20T15:51:53.048Z,18.71
2023-10-20T15:54:21.335Z,18.68
2023-10-20T15:56:53.359Z,18.64
2023-10-20T15:59:21.805Z,18.62
2023-10-20T16:01:49.934Z,18.54
2023-10-20T16:04:18.539Z,18.45
2023-10-20T16:06:47.461Z,18.39
2023-10-20T16:09:16.935Z,18.36
2023-10-20T16:11:47.655Z,18.34
2023-10-20T16:14:16.340Z,18.30
2023-10-20T16:16:44.442Z,18.26
2023-10-20T16:19:12.653Z,18.23
2023-10-20T16:21:42.584Z,18.21
2023-10-20T16:24:14.492Z,18.20
2023-10-20T16:26:42.844Z,18.20
2023-10-20T16:29:11.388Z,18.20
2023-10-20T16:31:40.702Z,18.21
2023-10-20T16:34:09.083Z,18.19
2023-10-20T16:36:37.890Z,18.15
2023-10-20T16:39:05.984Z,18.12
2023-10-20T16:41:37.570Z,18.08
2023-10-20T16:44:06.674Z,18.02
2023-10-20T16:46:38.718Z,17.96
2023-10-20T16:49:06.847Z,17.89
2023-10-20T16:51:35.520Z,17.84
2023-10-20T16:54:06.078Z,17.79
2023-10-20T16:56:34.883Z,17.74
2023-10-20T16:59:04.238Z,17.67
2023-10-20T17:01:33.338Z,17.62
2023-10-20T17:04:02.502Z,17.54
2023-10-20T17:06:32.333Z,17.47
2023-10-20T17:09:00.631Z,17.37
2023-10-20T17:11:29.237Z,17.30
2023-10-20T17:13:57.673Z,17.25
2023-10-20T17:16:26.033Z,17.22
2023-10-20T17:18:58.065Z,17.13
2023-10-20T17:21:26.373Z,17.08
2023-10-20T17:23:55.330Z,17.05
2023-10-20T17:26:26.257Z,17.02
2023-10-20T17:28:54.711Z,17.00
2023-10-20T17:31:23.051Z,16.99
2023-10-20T17:33:51.298Z,16.99
2023-10-20T17:36:19.536Z,16.98
2023-10-20T17:38:47.728Z,16.97
2023-10-20T17:41:16.590Z,16.95
2023-10-20T17:43:44.769Z,16.95
2023-10-20T17:46:13.245Z,16.95
2023-10-20T17:48:41.786Z,16.92
2023-10-20T17:51:12.762Z,16.88
2023-10-20T17:53:44.568Z,16.85
2023-10-20T17:56:16.207Z,16.82
2023-10-20T17:58:47.796Z,16.79
2023-10-20T18:01:16.521Z,16.75
2023-10-20T18:03:45.269Z,16.68
2023-10-20T18:06:21.463Z,16.65
2023-10-20T18:08:54.931Z,16.60
2023-10-20T18:11:23.616Z,16.57
2023-10-20T18:13:56.798Z,16.53
2023-10-20T18:16:26.527Z,16.51
2023-10-20T18:18:54.761Z,16.50
2023-10-20T18:21:30.699Z,16.50
2023-10-20T18:24:00.102Z,16.50
2023-10-20T18:26:28.364Z,16.49
2023-10-20T18:28:56.498Z,16.48
2023-10-20T18:31:25.839Z,16.46
2023-10-20T18:33:58.616Z,16.47
2023-10-20T18:36:29.089Z,16.48
2023-10-20T18:38:57.709Z,16.47
2023-10-20T18:41:26.254Z,16.46
2023-10-20T18:43:54.924Z,16.44
2023-10-20T18:46:25.161Z,16.44
2023-10-20T18:48:54.050Z,16.47
2023-10-20T18:51:22.596Z,16.47
2023-10-20T18:53:53.256Z,16.47
2023-10-20T18:56:23.195Z,16.46
2023-10-20T18:58:51.808Z,16.46
2023-10-20T19:01:24.022Z,16.44
2023-10-20T19:03:55.521Z,16.44
2023-10-20T19:06:26.884Z,16.45
2023-10-20T19:08:57.220Z,16.45
2023-10-20T19:11:28.619Z,16.46
2023-10-20T19:13:59.318Z,16.43
2023-10-20T19:16:32.729Z,16.41
2023-10-20T19:19:01.625Z,16.39
2023-10-20T19:21:31.842Z,16.37
2023-10-20T19:23:59.983Z,16.38
2023-10-20T19:26:28.414Z,16.40
2023-10-20T19:28:58.827Z,16.38
2023-10-20T19:31:27.254Z,16.39
2023-10-20T19:33:55.890Z,16.40
2023-10-20T19:36:24.057Z,16.40
2023-10-20T19:38:52.480Z,16.40
2023-10-20T19:41:26.382Z,16.44
2023-10-20T19:43:55.452Z,16.46
2023-10-20T19:46:23.603Z,16.45
2023-10-20T19:48:52.696Z,16.43
2023-10-20T19:51:24.472Z,16.44
2023-10-20T19:53:52.557Z,16.46
2023-10-20T19:56:23.145Z,16.47
2023-10-20T19:58:51.855Z,16.48
2023-10-20T20:01:20.792Z,16.47
2023-10-20T20:03:51.916Z,16.49
2023-10-20T20:06:23.255Z,16.52
2023-10-20T20:08:51.544Z,16.56
2023-10-20T20:11:19.964Z,16.56
2023-10-20T20:13:48.082Z,16.55
2023-10-20T20:16:18.912Z,16.53
2023-10-20T20:18:47.011Z,16.53
2023-10-20T20:21:15.534Z,16.50
2023-10-20T20:23:44.030Z,16.51
2023-10-20T20:26:12.187Z,16.53
2023-10-20T20:28:41.905Z,16.54
2023-10-20T20:31:11.153Z,16.54
2023-10-20T20:33:39.792Z,16.52
2023-10-20T20:36:08.136Z,16.52
2023-10-20T20:38:37.223Z,16.50
2023-10-20T20:41:06.861Z,16.49
2023-10-20T20:43:35.586Z,16.48
2023-10-20T20:46:03.793Z,16.49
2023-10-20T20:48:32.573Z,16.48
2023-10-20T20:51:01.256Z,16.48
2023-10-20T20:53:29.742Z,16.49
2023-10-20T20:55:58.581Z,16.49
2023-10-20T20:58:27.158Z,16.47
2023-10-20T21:00:56.423Z,16.44
2023-10-20T21:03:24.959Z,16.44
2023-10-20T21:06:00.796Z,16.49
2023-10-20T21:08:29.144Z,16.52
2023-10-20T21:11:10.392Z,16.52
2023-10-20T21:13:40.503Z,16.54
2023-10-20T21:16:11.132Z,16.53
2023-10-20T21:18:39.582Z,16.53
2023-10-20T21:21:14.724Z,16.54
2023-10-20T21:23:47.740Z,16.57
2023-10-20T21:26:16.574Z,16.61
2023-10-20T21:28:44.667Z,16.62
2023-10-20T21:31:13.530Z,16.62
2023-10-20T21:33:42.399Z,16.62
2023-10-20T21:36:15.881Z,16.61
2023-10-20T21:38:44.444Z,16.57
2023-10-20T21:41:12.769Z,16.53
2023-10-20T21:43:41.560Z,16.49
2023-10-20T21:46:10.251Z,16.46
2023-10-20T21:48:38.990Z,16.42
2023-10-20T21:51:12.053Z,16.40
2023-10-20T21:53:40.637Z,16.35
2023-10-20T21:56:11.172Z,16.30
2023-10-20T21:58:40.024Z,16.22
2023-10-20T22:01:10.500Z,16.19
2023-10-20T22:03:40.037Z,16.15
2023-10-20T22:06:09.627Z,16.09
2023-10-20T22:08:37.880Z,16.04
2023-10-20T22:11:06.507Z,15.97
2023-10-20T22:13:34.894Z,15.94
2023-10-20T22:16:05.320Z,15.94
2023-10-20T22:18:33.909Z,15.94
2023-10-20T22:21:02.208Z,15.93
2023-10-20T22:23:30.418Z,15.89
2023-10-20T22:25:58.657Z,15.85
2023-10-20T22:28:27.569Z,15.81
2023-10-20T22:30:56.846Z,15.75
2023-10-20T22:33:25.768Z,15.68
2023-10-20T22:35:53.959Z,15.60
2023-10-20T22:38:22.025Z,15.59
2023-10-20T22:40:50.242Z,15.60
2023-10-20T22:43:18.667Z,15.63
2023-10-20T22:45:46.981Z,15.63
2023-10-20T22:48:15.369Z,15.62
2023-10-20T22:50:44.168Z,15.63
2023-10-20T22:53:12.532Z,15.62
2023-10-20T22:55:40.788Z,15.64
2023-10-20T22:58:09.789Z,15.65
2023-10-20T23:00:39.821Z,15.68
2023-10-20T23:03:08.364Z,15.71
2023-10-20T23:05:36.718Z,15.71
2023-10-20T23:08:07.436Z,15.70
2023-10-20T23:10:35.541Z,15.69
2023-10-20T23:13:05.733Z,15.70
2023-10-20T23:15:43.181Z,15.71
2023-10-20T23:18:11.537Z,15.69
2023-10-20T23:20:40.400Z,15.68
2023-10-20T23:23:08.498Z,15.64
2023-10-20T23:25:36.633Z,15.62
2023-10-20T23:28:05.288Z,15.60
2023-10-20T23:30:33.580Z,15.60
2023-10-20T23:33:02.113Z,15.59
2023-10-20T23:35:30.540Z,15.57
2023-10-20T23:37:58.595Z,15.57
2023-10-20T23:40:27.162Z,15.57
2023-10-20T23:42:55.311Z,15.56
2023-10-20T23:45:23.833Z,15.57
2023-10-20T23:47:51.910Z,15.57
2023-10-20T23:50:20.518Z,15.56
2023-10-20T23:52:49.366Z,15.54
2023-10-20T23:55:18.308Z,15.46
2023-10-20T23:57:47.005Z,15.42
